sensor_id;sensor_type;location;lat;lon;timestamp;P1;durP1;ratioP1;P2;durP2;ratioP2
30335;SDS011;17142;47.990;7.846;2023-12-14T00:01:26;5.27;;;3.30;;
30335;SDS011;17142;47.990;7.846;2023-12-14T00:03:52;5.00;;;3.33;;
30335;SDS011;17142;47.990;7.846;2023-12-14T00:06:20;4.90;;;2.90;;
30335;SDS011;17142;47.990;7.846;2023-12-14T00:08:45;5.40;;;3.10;;
30335;SDS011;17142;47.990;7.846;2023-12-14T00:11:13;2.87;;;2.53;;
30335;SDS011;17142;47.990;7.846;2023-12-14T00:13:39;4.20;;;3.00;;
30335;SDS011;17142;47.990;7.846;2023-12-14T00:16:05;2.80;;;2.50;;
30335;SDS011;17142;47.990;7.846;2023-12-14T00:18:31;2.43;;;2.20;;
30335;SDS011;17142;47.990;7.846;2023-12-14T00:20:57;4.33;;;3.03;;
30335;SDS011;17142;47.990;7.846;2023-12-14T00:23:25;5.90;;;2.53;;
30335;SDS011;17142;47.990;7.846;2023-12-14T00:25:51;3.60;;;3.10;;
30335;SDS011;17142;47.990;7.846;2023-12-14T00:28:16;5.03;;;2.70;;
30335;SDS011;17142;47.990;7.846;2023-12-14T00:30:42;3.83;;;2.73;;
30335;SDS011;17142;47.990;7.846;2023-12-14T00:33:08;3.20;;;2.90;;
30335;SDS011;17142;47.990;7.846;2023-12-14T00:35:33;4.20;;;2.00;;
30335;SDS011;17142;47.990;7.846;2023-12-14T00:37:59;2.87;;;2.67;;
30335;SDS011;17142;47.990;7.846;2023-12-14T00:40:25;4.00;;;2.00;;
30335;SDS011;17142;47.990;7.846;2023-12-14T00:42:51;3.20;;;2.73;;
30335;SDS011;17142;47.990;7.846;2023-12-14T00:45:17;2.67;;;2.43;;
30335;SDS011;17142;47.990;7.846;2023-12-14T00:47:44;3.83;;;2.50;;
30335;SDS011;17142;47.990;7.846;2023-12-14T00:50:10;2.53;;;2.20;;
30335;SDS011;17142;47.990;7.846;2023-12-14T00:52:36;2.47;;;2.27;;
30335;SDS011;17142;47.990;7.846;2023-12-14T00:55:04;4.03;;;2.57;;
30335;SDS011;17142;47.990;7.846;2023-12-14T00:57:32;3.17;;;2.80;;
30335;SDS011;17142;47.990;7.846;2023-12-14T00:59:58;2.77;;;2.53;;
30335;SDS011;17142;47.990;7.846;2023-12-14T01:02:25;4.70;;;3.70;;
30335;SDS011;17142;47.990;7.846;2023-12-14T01:04:51;5.33;;;3.87;;
30335;SDS011;17142;47.990;7.846;2023-12-14T01:07:17;3.53;;;3.23;;
30335;SDS011;17142;47.990;7.846;2023-12-14T01:09:42;3.40;;;2.67;;
30335;SDS011;17142;47.990;7.846;2023-12-14T01:12:08;4.87;;;3.13;;
30335;SDS011;17142;47.990;7.846;2023-12-14T01:14:36;3.00;;;2.60;;
30335;SDS011;17142;47.990;7.846;2023-12-14T01:17:01;3.57;;;3.20;;
30335;SDS011;17142;47.990;7.846;2023-12-14T01:19:27;6.03;;;2.63;;
30335;SDS011;17142;47.990;7.846;2023-12-14T01:21:53;3.20;;;2.70;;
30335;SDS011;17142;47.990;7.846;2023-12-14T01:24:20;4.13;;;3.10;;
30335;SDS011;17142;47.990;7.846;2023-12-14T01:26:48;3.17;;;2.97;;
30335;SDS011;17142;47.990;7.846;2023-12-14T01:29:13;13.23;;;3.30;;
30335;SDS011;17142;47.990;7.846;2023-12-14T01:31:41;4.13;;;3.27;;
30335;SDS011;17142;47.990;7.846;2023-12-14T01:34:09;3.90;;;3.33;;
30335;SDS011;17142;47.990;7.846;2023-12-14T01:36:37;4.73;;;2.70;;
30335;SDS011;17142;47.990;7.846;2023-12-14T01:39:05;3.60;;;2.90;;
30335;SDS011;17142;47.990;7.846;2023-12-14T01:41:33;4.37;;;2.97;;
30335;SDS011;17142;47.990;7.846;2023-12-14T01:43:59;3.87;;;3.30;;
30335;SDS011;17142;47.990;7.846;2023-12-14T01:46:27;3.50;;;2.50;;
30335;SDS011;17142;47.990;7.846;2023-12-14T01:48:52;5.33;;;3.30;;
30335;SDS011;17142;47.990;7.846;2023-12-14T01:51:20;4.93;;;2.50;;
30335;SDS011;17142;47.990;7.846;2023-12-14T01:53:46;3.67;;;2.17;;
30335;SDS011;17142;47.990;7.846;2023-12-14T01:56:12;3.20;;;2.90;;
30335;SDS011;17142;47.990;7.846;2023-12-14T01:58:40;4.80;;;3.27;;
30335;SDS011;17142;47.990;7.846;2023-12-14T02:01:19;5.17;;;3.20;;
30335;SDS011;17142;47.990;7.846;2023-12-14T02:03:59;2.90;;;2.60;;
30335;SDS011;17142;47.990;7.846;2023-12-14T02:06:28;4.63;;;3.40;;
30335;SDS011;17142;47.990;7.846;2023-12-14T02:08:56;3.27;;;2.97;;
30335;SDS011;17142;47.990;7.846;2023-12-14T02:11:24;8.80;;;3.43;;
30335;SDS011;17142;47.990;7.846;2023-12-14T02:13:50;4.27;;;3.17;;
30335;SDS011;17142;47.990;7.846;2023-12-14T02:16:16;4.90;;;3.30;;
30335;SDS011;17142;47.990;7.846;2023-12-14T02:18:44;3.37;;;2.93;;
30335;SDS011;17142;47.990;7.846;2023-12-14T02:21:09;4.13;;;3.07;;
30335;SDS011;17142;47.990;7.846;2023-12-14T02:23:35;5.30;;;3.60;;
30335;SDS011;17142;47.990;7.846;2023-12-14T02:26:07;4.30;;;3.30;;
30335;SDS011;17142;47.990;7.846;2023-12-14T02:28:32;4.43;;;3.43;;
30335;SDS011;17142;47.990;7.846;2023-12-14T02:31:00;3.60;;;2.57;;
30335;SDS011;17142;47.990;7.846;2023-12-14T02:33:28;4.20;;;3.80;;
30335;SDS011;17142;47.990;7.846;2023-12-14T02:35:58;4.27;;;3.17;;
30335;SDS011;17142;47.990;7.846;2023-12-14T02:38:25;4.13;;;3.00;;
30335;SDS011;17142;47.990;7.846;2023-12-14T02:40:53;4.90;;;2.90;;
30335;SDS011;17142;47.990;7.846;2023-12-14T02:43:19;5.60;;;2.53;;
30335;SDS011;17142;47.990;7.846;2023-12-14T02:45:45;5.97;;;4.17;;
30335;SDS011;17142;47.990;7.846;2023-12-14T02:48:13;4.77;;;3.10;;
30335;SDS011;17142;47.990;7.846;2023-12-14T02:50:40;5.60;;;3.60;;
30335;SDS011;17142;47.990;7.846;2023-12-14T02:53:08;5.90;;;3.10;;
30335;SDS011;17142;47.990;7.846;2023-12-14T02:55:36;3.80;;;3.33;;
30335;SDS011;17142;47.990;7.846;2023-12-14T02:58:02;8.57;;;4.03;;
30335;SDS011;17142;47.990;7.846;2023-12-14T03:00:28;4.20;;;3.37;;
30335;SDS011;17142;47.990;7.846;2023-12-14T03:02:54;8.30;;;3.90;;
30335;SDS011;17142;47.990;7.846;2023-12-14T03:05:20;4.43;;;3.90;;
30335;SDS011;17142;47.990;7.846;2023-12-14T03:07:45;7.40;;;4.07;;
30335;SDS011;17142;47.990;7.846;2023-12-14T03:10:15;4.40;;;4.10;;
30335;SDS011;17142;47.990;7.846;2023-12-14T03:12:43;5.10;;;4.00;;
30335;SDS011;17142;47.990;7.846;2023-12-14T03:15:11;5.40;;;4.00;;
30335;SDS011;17142;47.990;7.846;2023-12-14T03:17:37;5.90;;;4.43;;
30335;SDS011;17142;47.990;7.846;2023-12-14T03:20:03;6.03;;;4.33;;
30335;SDS011;17142;47.990;7.846;2023-12-14T03:22:30;6.23;;;4.37;;
30335;SDS011;17142;47.990;7.846;2023-12-14T03:24:58;6.83;;;4.30;;
30335;SDS011;17142;47.990;7.846;2023-12-14T03:27:24;6.23;;;3.77;;
30335;SDS011;17142;47.990;7.846;2023-12-14T03:29:49;5.83;;;3.50;;
30335;SDS011;17142;47.990;7.846;2023-12-14T03:32:15;5.17;;;4.13;;
30335;SDS011;17142;47.990;7.846;2023-12-14T03:34:41;5.40;;;3.80;;
30335;SDS011;17142;47.990;7.846;2023-12-14T03:37:06;6.20;;;3.93;;
30335;SDS011;17142;47.990;7.846;2023-12-14T03:39:32;5.80;;;3.83;;
30335;SDS011;17142;47.990;7.846;2023-12-14T03:41:57;6.53;;;4.80;;
30335;SDS011;17142;47.990;7.846;2023-12-14T03:44:23;4.77;;;4.30;;
30335;SDS011;17142;47.990;7.846;2023-12-14T03:46:49;7.33;;;4.07;;
30335;SDS011;17142;47.990;7.846;2023-12-14T03:49:15;3.63;;;3.33;;
30335;SDS011;17142;47.990;7.846;2023-12-14T03:51:40;5.63;;;3.37;;
30335;SDS011;17142;47.990;7.846;2023-12-14T03:54:06;7.97;;;4.07;;
30335;SDS011;17142;47.990;7.846;2023-12-14T03:56:32;5.50;;;3.73;;
30335;SDS011;17142;47.990;7.846;2023-12-14T03:58:57;5.80;;;3.90;;
30335;SDS011;17142;47.990;7.846;2023-12-14T04:01:23;6.00;;;3.63;;
30335;SDS011;17142;47.990;7.846;2023-12-14T04:03:51;5.17;;;3.77;;
30335;SDS011;17142;47.990;7.846;2023-12-14T04:06:17;4.57;;;4.03;;
30335;SDS011;17142;47.990;7.846;2023-12-14T04:08:45;3.50;;;2.60;;
30335;SDS011;17142;47.990;7.846;2023-12-14T04:11:10;3.47;;;3.07;;
30335;SDS011;17142;47.990;7.846;2023-12-14T04:13:38;2.90;;;2.60;;
30335;SDS011;17142;47.990;7.846;2023-12-14T04:16:04;4.20;;;2.60;;
30335;SDS011;17142;47.990;7.846;2023-12-14T04:18:30;5.00;;;3.33;;
30335;SDS011;17142;47.990;7.846;2023-12-14T04:20:56;5.70;;;3.10;;
30335;SDS011;17142;47.990;7.846;2023-12-14T04:23:24;3.37;;;3.00;;
30335;SDS011;17142;47.990;7.846;2023-12-14T04:25:51;4.37;;;3.10;;
30335;SDS011;17142;47.990;7.846;2023-12-14T04:28:16;3.97;;;3.50;;
30335;SDS011;17142;47.990;7.846;2023-12-14T04:30:42;4.40;;;4.00;;
30335;SDS011;17142;47.990;7.846;2023-12-14T04:33:08;9.83;;;3.60;;
30335;SDS011;17142;47.990;7.846;2023-12-14T04:35:33;3.33;;;2.97;;
30335;SDS011;17142;47.990;7.846;2023-12-14T04:38:01;6.50;;;3.50;;
30335;SDS011;17142;47.990;7.846;2023-12-14T04:40:29;3.17;;;2.87;;
30335;SDS011;17142;47.990;7.846;2023-12-14T04:42:55;4.50;;;3.60;;
30335;SDS011;17142;47.990;7.846;2023-12-14T04:45:23;3.87;;;3.23;;
30335;SDS011;17142;47.990;7.846;2023-12-14T04:47:49;6.53;;;4.30;;
30335;SDS011;17142;47.990;7.846;2023-12-14T04:50:14;6.80;;;3.97;;
30335;SDS011;17142;47.990;7.846;2023-12-14T04:52:41;5.37;;;4.30;;
30335;SDS011;17142;47.990;7.846;2023-12-14T04:55:07;4.00;;;3.53;;
30335;SDS011;17142;47.990;7.846;2023-12-14T04:57:33;5.03;;;3.70;;
30335;SDS011;17142;47.990;7.846;2023-12-14T04:59:59;8.40;;;3.90;;
30335;SDS011;17142;47.990;7.846;2023-12-14T05:02:25;5.50;;;4.10;;
30335;SDS011;17142;47.990;7.846;2023-12-14T05:04:51;5.70;;;2.60;;
30335;SDS011;17142;47.990;7.846;2023-12-14T05:07:16;3.60;;;3.00;;
30335;SDS011;17142;47.990;7.846;2023-12-14T05:09:45;4.00;;;3.60;;
30335;SDS011;17142;47.990;7.846;2023-12-14T05:12:10;3.70;;;3.40;;
30335;SDS011;17142;47.990;7.846;2023-12-14T05:14:36;4.30;;;3.13;;
30335;SDS011;17142;47.990;7.846;2023-12-14T05:17:01;3.77;;;3.07;;
30335;SDS011;17142;47.990;7.846;2023-12-14T05:19:27;3.23;;;2.60;;
30335;SDS011;17142;47.990;7.846;2023-12-14T05:21:53;3.37;;;2.43;;
30335;SDS011;17142;47.990;7.846;2023-12-14T05:24:19;4.00;;;3.20;;
30335;SDS011;17142;47.990;7.846;2023-12-14T05:26:45;5.20;;;3.50;;
30335;SDS011;17142;47.990;7.846;2023-12-14T05:29:10;3.90;;;3.47;;
30335;SDS011;17142;47.990;7.846;2023-12-14T05:31:36;3.53;;;2.73;;
30335;SDS011;17142;47.990;7.846;2023-12-14T05:34:03;5.00;;;2.67;;
30335;SDS011;17142;47.990;7.846;2023-12-14T05:36:29;3.00;;;2.70;;
30335;SDS011;17142;47.990;7.846;2023-12-14T05:38:57;4.20;;;3.03;;
30335;SDS011;17142;47.990;7.846;2023-12-14T05:41:23;11.10;;;3.40;;
30335;SDS011;17142;47.990;7.846;2023-12-14T05:43:49;3.23;;;2.57;;
30335;SDS011;17142;47.990;7.846;2023-12-14T05:46:21;4.53;;;2.93;;
30335;SDS011;17142;47.990;7.846;2023-12-14T05:48:48;2.83;;;2.40;;
30335;SDS011;17142;47.990;7.846;2023-12-14T05:51:25;5.97;;;3.73;;
30335;SDS011;17142;47.990;7.846;2023-12-14T05:53:52;5.23;;;4.53;;
30335;SDS011;17142;47.990;7.846;2023-12-14T05:56:20;2.47;;;2.27;;
30335;SDS011;17142;47.990;7.846;2023-12-14T05:58:48;3.00;;;2.70;;
30335;SDS011;17142;47.990;7.846;2023-12-14T06:01:16;3.53;;;3.00;;
30335;SDS011;17142;47.990;7.846;2023-12-14T06:03:47;5.23;;;3.30;;
30335;SDS011;17142;47.990;7.846;2023-12-14T06:06:13;3.20;;;3.00;;
30335;SDS011;17142;47.990;7.846;2023-12-14T06:08:41;4.30;;;3.33;;
30335;SDS011;17142;47.990;7.846;2023-12-14T06:11:09;4.80;;;3.73;;
30335;SDS011;17142;47.990;7.846;2023-12-14T06:13:35;6.83;;;4.07;;
30335;SDS011;17142;47.990;7.846;2023-12-14T06:16:03;5.50;;;3.90;;
30335;SDS011;17142;47.990;7.846;2023-12-14T06:18:37;4.33;;;3.90;;
30335;SDS011;17142;47.990;7.846;2023-12-14T06:21:06;4.53;;;3.63;;
30335;SDS011;17142;47.990;7.846;2023-12-14T06:23:32;6.23;;;4.47;;
30335;SDS011;17142;47.990;7.846;2023-12-14T06:25:57;5.30;;;4.43;;
30335;SDS011;17142;47.990;7.846;2023-12-14T06:28:23;6.40;;;4.70;;
30335;SDS011;17142;47.990;7.846;2023-12-14T06:30:49;5.57;;;4.20;;
30335;SDS011;17142;47.990;7.846;2023-12-14T06:33:15;4.27;;;3.87;;
30335;SDS011;17142;47.990;7.846;2023-12-14T06:35:43;5.07;;;4.40;;
30335;SDS011;17142;47.990;7.846;2023-12-14T06:38:11;4.30;;;3.90;;
30335;SDS011;17142;47.990;7.846;2023-12-14T06:40:37;8.00;;;4.80;;
30335;SDS011;17142;47.990;7.846;2023-12-14T06:43:06;5.60;;;5.10;;
30335;SDS011;17142;47.990;7.846;2023-12-14T06:45:31;5.37;;;4.43;;
30335;SDS011;17142;47.990;7.846;2023-12-14T06:47:59;6.23;;;4.80;;
30335;SDS011;17142;47.990;7.846;2023-12-14T06:50:27;5.43;;;4.23;;
30335;SDS011;17142;47.990;7.846;2023-12-14T06:52:53;5.30;;;4.23;;
30335;SDS011;17142;47.990;7.846;2023-12-14T06:55:20;4.47;;;4.07;;
30335;SDS011;17142;47.990;7.846;2023-12-14T06:57:48;7.33;;;3.40;;
30335;SDS011;17142;47.990;7.846;2023-12-14T07:00:16;3.70;;;2.93;;
30335;SDS011;17142;47.990;7.846;2023-12-14T07:02:42;5.67;;;3.33;;
30335;SDS011;17142;47.990;7.846;2023-12-14T07:05:08;3.83;;;1.77;;
30335;SDS011;17142;47.990;7.846;2023-12-14T07:07:34;4.30;;;2.00;;
30335;SDS011;17142;47.990;7.846;2023-12-14T07:10:00;4.40;;;2.07;;
30335;SDS011;17142;47.990;7.846;2023-12-14T07:12:26;2.77;;;2.00;;
30335;SDS011;17142;47.990;7.846;2023-12-14T07:14:54;2.20;;;1.70;;
30335;SDS011;17142;47.990;7.846;2023-12-14T07:17:20;2.87;;;1.70;;
30335;SDS011;17142;47.990;7.846;2023-12-14T07:19:45;1.50;;;1.40;;
30335;SDS011;17142;47.990;7.846;2023-12-14T07:22:11;2.00;;;1.80;;
30335;SDS011;17142;47.990;7.846;2023-12-14T07:24:36;1.63;;;1.47;;
30335;SDS011;17142;47.990;7.846;2023-12-14T07:27:04;2.87;;;1.53;;
30335;SDS011;17142;47.990;7.846;2023-12-14T07:29:30;4.53;;;2.60;;
30335;SDS011;17142;47.990;7.846;2023-12-14T07:31:55;2.17;;;1.70;;
30335;SDS011;17142;47.990;7.846;2023-12-14T07:34:21;1.53;;;1.43;;
30335;SDS011;17142;47.990;7.846;2023-12-14T07:36:49;4.00;;;1.60;;
30335;SDS011;17142;47.990;7.846;2023-12-14T07:39:16;2.57;;;1.87;;
30335;SDS011;17142;47.990;7.846;2023-12-14T07:41:42;3.40;;;2.13;;
30335;SDS011;17142;47.990;7.846;2023-12-14T07:44:07;3.97;;;2.00;;
30335;SDS011;17142;47.990;7.846;2023-12-14T07:46:33;1.70;;;1.60;;
30335;SDS011;17142;47.990;7.846;2023-12-14T07:49:00;6.57;;;2.07;;
30335;SDS011;17142;47.990;7.846;2023-12-14T07:51:28;2.47;;;1.67;;
30335;SDS011;17142;47.990;7.846;2023-12-14T07:53:53;2.70;;;1.43;;
30335;SDS011;17142;47.990;7.846;2023-12-14T07:56:19;2.50;;;1.80;;
30335;SDS011;17142;47.990;7.846;2023-12-14T07:58:44;1.90;;;1.60;;
30335;SDS011;17142;47.990;7.846;2023-12-14T08:01:10;2.70;;;2.10;;
30335;SDS011;17142;47.990;7.846;2023-12-14T08:03:38;2.13;;;1.80;;
30335;SDS011;17142;47.990;7.846;2023-12-14T08:06:03;3.00;;;1.53;;
30335;SDS011;17142;47.990;7.846;2023-12-14T08:08:29;2.73;;;1.73;;
30335;SDS011;17142;47.990;7.846;2023-12-14T08:10:57;2.00;;;1.73;;
30335;SDS011;17142;47.990;7.846;2023-12-14T08:13:23;2.93;;;1.70;;
30335;SDS011;17142;47.990;7.846;2023-12-14T08:15:50;3.70;;;2.03;;
30335;SDS011;17142;47.990;7.846;2023-12-14T08:18:16;2.90;;;1.47;;
30335;SDS011;17142;47.990;7.846;2023-12-14T08:20:42;1.97;;;1.40;;
30335;SDS011;17142;47.990;7.846;2023-12-14T08:23:10;2.90;;;2.27;;
30335;SDS011;17142;47.990;7.846;2023-12-14T08:25:35;2.70;;;2.00;;
30335;SDS011;17142;47.990;7.846;2023-12-14T08:28:01;3.20;;;2.10;;
30335;SDS011;17142;47.990;7.846;2023-12-14T08:30:26;2.17;;;1.70;;
30335;SDS011;17142;47.990;7.846;2023-12-14T08:32:52;3.57;;;2.10;;
30335;SDS011;17142;47.990;7.846;2023-12-14T08:35:18;2.20;;;1.70;;
30335;SDS011;17142;47.990;7.846;2023-12-14T08:37:46;4.23;;;2.03;;
30335;SDS011;17142;47.990;7.846;2023-12-14T08:40:14;3.07;;;2.00;;
30335;SDS011;17142;47.990;7.846;2023-12-14T08:42:40;2.30;;;1.93;;
30335;SDS011;17142;47.990;7.846;2023-12-14T08:45:07;3.57;;;2.33;;
30335;SDS011;17142;47.990;7.846;2023-12-14T08:47:36;2.70;;;2.50;;
30335;SDS011;17142;47.990;7.846;2023-12-14T08:50:01;3.87;;;2.97;;
30335;SDS011;17142;47.990;7.846;2023-12-14T08:52:27;4.87;;;3.50;;
30335;SDS011;17142;47.990;7.846;2023-12-14T08:54:53;6.40;;;3.80;;
30335;SDS011;17142;47.990;7.846;2023-12-14T08:57:18;3.87;;;3.47;;
30335;SDS011;17142;47.990;7.846;2023-12-14T08:59:46;5.47;;;3.90;;
30335;SDS011;17142;47.990;7.846;2023-12-14T09:02:14;4.67;;;3.50;;
30335;SDS011;17142;47.990;7.846;2023-12-14T09:04:43;8.83;;;4.30;;
30335;SDS011;17142;47.990;7.846;2023-12-14T09:07:11;6.13;;;4.00;;
30335;SDS011;17142;47.990;7.846;2023-12-14T09:09:39;5.97;;;3.80;;
30335;SDS011;17142;47.990;7.846;2023-12-14T09:12:07;6.53;;;4.00;;
30335;SDS011;17142;47.990;7.846;2023-12-14T09:14:32;5.53;;;3.60;;
30335;SDS011;17142;47.990;7.846;2023-12-14T09:16:58;5.50;;;3.10;;
30335;SDS011;17142;47.990;7.846;2023-12-14T09:19:26;5.00;;;2.70;;
30335;SDS011;17142;47.990;7.846;2023-12-14T09:21:53;6.00;;;2.97;;
30335;SDS011;17142;47.990;7.846;2023-12-14T09:24:19;5.70;;;3.47;;
30335;SDS011;17142;47.990;7.846;2023-12-14T09:26:44;5.70;;;2.60;;
30335;SDS011;17142;47.990;7.846;2023-12-14T09:29:12;4.13;;;2.80;;
30335;SDS011;17142;47.990;7.846;2023-12-14T09:31:42;3.30;;;2.67;;
30335;SDS011;17142;47.990;7.846;2023-12-14T09:34:11;2.90;;;2.40;;
30335;SDS011;17142;47.990;7.846;2023-12-14T09:36:39;2.80;;;2.57;;
30335;SDS011;17142;47.990;7.846;2023-12-14T09:39:04;2.43;;;2.23;;
30335;SDS011;17142;47.990;7.846;2023-12-14T09:41:33;2.87;;;2.40;;
30335;SDS011;17142;47.990;7.846;2023-12-14T09:43:59;2.90;;;1.97;;
30335;SDS011;17142;47.990;7.846;2023-12-14T09:46:24;4.90;;;2.50;;
30335;SDS011;17142;47.990;7.846;2023-12-14T09:48:54;3.07;;;2.40;;
30335;SDS011;17142;47.990;7.846;2023-12-14T09:51:22;6.87;;;3.87;;
30335;SDS011;17142;47.990;7.846;2023-12-14T09:53:53;3.20;;;2.33;;
30335;SDS011;17142;47.990;7.846;2023-12-14T09:56:26;2.90;;;2.37;;
30335;SDS011;17142;47.990;7.846;2023-12-14T09:58:52;4.27;;;2.27;;
30335;SDS011;17142;47.990;7.846;2023-12-14T10:01:22;5.73;;;2.60;;
30335;SDS011;17142;47.990;7.846;2023-12-14T10:04:06;2.30;;;2.10;;
30335;SDS011;17142;47.990;7.846;2023-12-14T10:06:44;3.50;;;1.93;;
30335;SDS011;17142;47.990;7.846;2023-12-14T10:09:10;1.77;;;1.63;;
30335;SDS011;17142;47.990;7.846;2023-12-14T10:11:42;3.63;;;2.20;;
30335;SDS011;17142;47.990;7.846;2023-12-14T10:14:17;6.33;;;2.53;;
30335;SDS011;17142;47.990;7.846;2023-12-14T10:16:48;2.67;;;1.80;;
30335;SDS011;17142;47.990;7.846;2023-12-14T10:19:16;2.70;;;2.13;;
30335;SDS011;17142;47.990;7.846;2023-12-14T10:21:42;2.70;;;2.00;;
30335;SDS011;17142;47.990;7.846;2023-12-14T10:24:08;4.83;;;1.80;;
30335;SDS011;17142;47.990;7.846;2023-12-14T10:26:34;2.87;;;1.83;;
30335;SDS011;17142;47.990;7.846;2023-12-14T10:29:00;2.00;;;1.37;;
30335;SDS011;17142;47.990;7.846;2023-12-14T10:31:31;3.20;;;2.20;;
30335;SDS011;17142;47.990;7.846;2023-12-14T10:34:02;2.10;;;1.50;;
30335;SDS011;17142;47.990;7.846;2023-12-14T10:36:33;2.97;;;2.40;;
30335;SDS011;17142;47.990;7.846;2023-12-14T10:39:00;5.93;;;1.80;;
30335;SDS011;17142;47.990;7.846;2023-12-14T10:41:26;4.40;;;3.00;;
30335;SDS011;17142;47.990;7.846;2023-12-14T10:43:56;3.63;;;2.33;;
30335;SDS011;17142;47.990;7.846;2023-12-14T10:46:24;3.00;;;2.30;;
30335;SDS011;17142;47.990;7.846;2023-12-14T10:48:52;4.03;;;2.37;;
30335;SDS011;17142;47.990;7.846;2023-12-14T10:51:23;3.50;;;1.80;;
30335;SDS011;17142;47.990;7.846;2023-12-14T10:53:51;2.70;;;2.50;;
30335;SDS011;17142;47.990;7.846;2023-12-14T10:56:18;3.17;;;2.67;;
30335;SDS011;17142;47.990;7.846;2023-12-14T10:58:53;2.40;;;2.20;;
30335;SDS011;17142;47.990;7.846;2023-12-14T11:01:25;4.80;;;3.17;;
30335;SDS011;17142;47.990;7.846;2023-12-14T11:03:54;5.07;;;2.63;;
30335;SDS011;17142;47.990;7.846;2023-12-14T11:09:01;3.23;;;2.50;;
30335;SDS011;17142;47.990;7.846;2023-12-14T11:11:39;4.40;;;2.20;;
30335;SDS011;17142;47.990;7.846;2023-12-14T11:14:22;8.60;;;2.63;;
30335;SDS011;17142;47.990;7.846;2023-12-14T11:16:49;5.03;;;3.57;;
30335;SDS011;17142;47.990;7.846;2023-12-14T11:21:48;4.00;;;2.50;;
30335;SDS011;17142;47.990;7.846;2023-12-14T11:24:14;5.63;;;3.40;;
30335;SDS011;17142;47.990;7.846;2023-12-14T11:26:39;4.87;;;3.90;;
30335;SDS011;17142;47.990;7.846;2023-12-14T11:29:06;4.10;;;2.43;;
30335;SDS011;17142;47.990;7.846;2023-12-14T11:31:32;3.80;;;3.13;;
30335;SDS011;17142;47.990;7.846;2023-12-14T11:33:58;2.30;;;2.10;;
30335;SDS011;17142;47.990;7.846;2023-12-14T11:36:25;2.80;;;2.10;;
30335;SDS011;17142;47.990;7.846;2023-12-14T11:38:51;2.77;;;1.97;;
30335;SDS011;17142;47.990;7.846;2023-12-14T11:41:20;2.90;;;2.33;;
30335;SDS011;17142;47.990;7.846;2023-12-14T11:43:46;3.10;;;2.60;;
30335;SDS011;17142;47.990;7.846;2023-12-14T11:46:12;3.20;;;2.20;;
30335;SDS011;17142;47.990;7.846;2023-12-14T11:48:40;2.90;;;2.33;;
30335;SDS011;17142;47.990;7.846;2023-12-14T11:51:09;2.83;;;2.30;;
30335;SDS011;17142;47.990;7.846;2023-12-14T11:53:38;6.47;;;4.93;;
30335;SDS011;17142;47.990;7.846;2023-12-14T11:56:04;3.50;;;2.23;;
30335;SDS011;17142;47.990;7.846;2023-12-14T11:58:33;2.67;;;2.47;;
30335;SDS011;17142;47.990;7.846;2023-12-14T12:01:15;3.03;;;2.47;;
30335;SDS011;17142;47.990;7.846;2023-12-14T12:03:46;6.00;;;2.50;;
30335;SDS011;17142;47.990;7.846;2023-12-14T12:06:25;3.23;;;2.03;;
30335;SDS011;17142;47.990;7.846;2023-12-14T12:08:53;1.60;;;1.50;;
30335;SDS011;17142;47.990;7.846;2023-12-14T12:11:20;2.70;;;2.03;;
30335;SDS011;17142;47.990;7.846;2023-12-14T12:13:56;1.70;;;1.60;;
30335;SDS011;17142;47.990;7.846;2023-12-14T12:16:23;5.83;;;2.70;;
30335;SDS011;17142;47.990;7.846;2023-12-14T12:18:51;3.63;;;2.40;;
30335;SDS011;17142;47.990;7.846;2023-12-14T12:21:16;2.60;;;2.27;;
30335;SDS011;17142;47.990;7.846;2023-12-14T12:23:42;2.90;;;2.10;;
30335;SDS011;17142;47.990;7.846;2023-12-14T12:26:08;2.90;;;2.10;;
30335;SDS011;17142;47.990;7.846;2023-12-14T12:28:34;3.60;;;2.80;;
30335;SDS011;17142;47.990;7.846;2023-12-14T12:30:59;2.40;;;1.97;;
30335;SDS011;17142;47.990;7.846;2023-12-14T12:33:29;2.80;;;2.60;;
30335;SDS011;17142;47.990;7.846;2023-12-14T12:35:55;5.80;;;3.10;;
30335;SDS011;17142;47.990;7.846;2023-12-14T12:38:20;4.23;;;2.30;;
30335;SDS011;17142;47.990;7.846;2023-12-14T12:40:50;4.27;;;3.50;;
30335;SDS011;17142;47.990;7.846;2023-12-14T12:43:16;3.70;;;2.70;;
30335;SDS011;17142;47.990;7.846;2023-12-14T12:45:42;5.97;;;3.13;;
30335;SDS011;17142;47.990;7.846;2023-12-14T12:48:08;4.07;;;2.50;;
30335;SDS011;17142;47.990;7.846;2023-12-14T12:50:36;4.70;;;2.60;;
30335;SDS011;17142;47.990;7.846;2023-12-14T12:53:01;3.83;;;2.73;;
30335;SDS011;17142;47.990;7.846;2023-12-14T12:55:27;2.73;;;2.53;;
30335;SDS011;17142;47.990;7.846;2023-12-14T12:57:53;2.27;;;2.07;;
30335;SDS011;17142;47.990;7.846;2023-12-14T13:00:18;3.10;;;2.13;;
30335;SDS011;17142;47.990;7.846;2023-12-14T13:02:44;3.37;;;2.57;;
30335;SDS011;17142;47.990;7.846;2023-12-14T13:05:10;2.93;;;2.30;;
30335;SDS011;17142;47.990;7.846;2023-12-14T13:07:43;4.30;;;2.70;;
30335;SDS011;17142;47.990;7.846;2023-12-14T13:10:10;2.90;;;2.30;;
30335;SDS011;17142;47.990;7.846;2023-12-14T13:12:35;2.33;;;2.03;;
30335;SDS011;17142;47.990;7.846;2023-12-14T13:15:01;6.27;;;3.10;;
30335;SDS011;17142;47.990;7.846;2023-12-14T13:17:27;4.20;;;2.70;;
30335;SDS011;17142;47.990;7.846;2023-12-14T13:19:52;2.87;;;2.27;;
30335;SDS011;17142;47.990;7.846;2023-12-14T13:22:19;2.57;;;1.93;;
30335;SDS011;17142;47.990;7.846;2023-12-14T13:24:45;2.50;;;2.00;;
30335;SDS011;17142;47.990;7.846;2023-12-14T13:27:11;3.47;;;2.57;;
30335;SDS011;17142;47.990;7.846;2023-12-14T13:29:37;2.53;;;2.27;;
30335;SDS011;17142;47.990;7.846;2023-12-14T13:32:06;4.80;;;2.07;;
30335;SDS011;17142;47.990;7.846;2023-12-14T13:34:31;3.87;;;2.50;;
30335;SDS011;17142;47.990;7.846;2023-12-14T13:36:58;2.20;;;1.67;;
30335;SDS011;17142;47.990;7.846;2023-12-14T13:39:26;4.07;;;2.70;;
30335;SDS011;17142;47.990;7.846;2023-12-14T13:41:52;6.97;;;4.13;;
30335;SDS011;17142;47.990;7.846;2023-12-14T13:44:18;3.00;;;2.70;;
30335;SDS011;17142;47.990;7.846;2023-12-14T13:46:43;2.60;;;2.40;;
30335;SDS011;17142;47.990;7.846;2023-12-14T13:49:11;7.73;;;2.73;;
30335;SDS011;17142;47.990;7.846;2023-12-14T13:51:37;2.57;;;1.93;;
30335;SDS011;17142;47.990;7.846;2023-12-14T13:54:03;5.50;;;2.47;;
30335;SDS011;17142;47.990;7.846;2023-12-14T13:56:31;3.80;;;1.90;;
30335;SDS011;17142;47.990;7.846;2023-12-14T13:58:58;3.23;;;2.03;;
30335;SDS011;17142;47.990;7.846;2023-12-14T14:01:24;3.80;;;2.20;;
30335;SDS011;17142;47.990;7.846;2023-12-14T14:03:52;2.97;;;1.90;;
30335;SDS011;17142;47.990;7.846;2023-12-14T14:06:18;2.27;;;1.97;;
30335;SDS011;17142;47.990;7.846;2023-12-14T14:08:45;2.57;;;2.17;;
30335;SDS011;17142;47.990;7.846;2023-12-14T14:11:11;2.00;;;1.80;;
30335;SDS011;17142;47.990;7.846;2023-12-14T14:13:37;1.47;;;1.37;;
30335;SDS011;17142;47.990;7.846;2023-12-14T14:16:03;2.80;;;1.80;;
30335;SDS011;17142;47.990;7.846;2023-12-14T14:18:31;3.20;;;2.10;;
30335;SDS011;17142;47.990;7.846;2023-12-14T14:20:57;2.10;;;1.80;;
30335;SDS011;17142;47.990;7.846;2023-12-14T14:23:24;2.27;;;2.07;;
30335;SDS011;17142;47.990;7.846;2023-12-14T14:25:52;2.97;;;2.33;;
30335;SDS011;17142;47.990;7.846;2023-12-14T14:28:21;2.10;;;1.60;;
30335;SDS011;17142;47.990;7.846;2023-12-14T14:30:47;2.43;;;2.10;;
30335;SDS011;17142;47.990;7.846;2023-12-14T14:33:15;3.80;;;2.20;;
30335;SDS011;17142;47.990;7.846;2023-12-14T14:35:47;3.20;;;2.43;;
30335;SDS011;17142;47.990;7.846;2023-12-14T14:38:13;3.77;;;3.33;;
30335;SDS011;17142;47.990;7.846;2023-12-14T14:40:39;2.30;;;2.03;;
30335;SDS011;17142;47.990;7.846;2023-12-14T14:43:09;2.17;;;2.00;;
30335;SDS011;17142;47.990;7.846;2023-12-14T14:45:35;3.63;;;2.30;;
30335;SDS011;17142;47.990;7.846;2023-12-14T14:48:02;2.57;;;1.80;;
30335;SDS011;17142;47.990;7.846;2023-12-14T14:50:30;2.90;;;1.93;;
30335;SDS011;17142;47.990;7.846;2023-12-14T14:52:56;3.33;;;2.30;;